Archival Weather

Heathrow

London, United Kingdom (EGLL)

Report from: Tuesday, June 18, 2024 1:20 AM BST
Current time: Friday, July 19, 2024 4:31 AM BST

Current weather – Weather history – Daily summaries
Weather forecast

Temperature15.0°C (59.0°F)
Dew point10.0°C (50.0°F)
Winds 3 kts (1.5 m/s, 3.5 mph) West-Southwest (250°)
Visibility6.2 mi. (10 km)
Clouds Sky clear
Altimeter29.94 in.Hg (1014 mB)
Relative humidity72 %
Density altitude149 ft. (45 m)
Remarks Fully automated report
No clouds detected
Flight conditions Visual Meteorological Conditions
Raw dataEGLL 180020Z AUTO 25003KT 9999 NCD 15/10 Q1014
An error has occurred. This application may no longer respond until reloaded. Reload 🗙